Terminal Aerodrome Forecast
Issued by NWS Jacksonville, FL

Home | Current Version | Previous Version | Text Only | Print | Product List | Glossary On
Versions: 1 2 3 4 5 6 7 8 9 10 11 12 13 14 15 16 17 18 19 20 21 22 23 24 25 26
530
FTUS42 KJAX 180527
TAFJAX
TAF
KJAX 180527Z 1806/1906 00000KT 6SM BR FEW004 BKN250
      TEMPO 1809/1812 2SM BR BKN004
     FM181300 24005KT P6SM SCT250
     FM181700 27008KT P6SM FEW040 BKN250=

USA.gov is the U.S. government's official web portal to all federal, state and local government web resources and services.